Time;durP1;ratioP1;P1;durP2;ratioP2;P2;SDS_P1;SDS_P2;PMS_P1;PMS_P2;Temp;Humidity;BMP_temperature;BMP_pressure;BME280_temperature;BME280_humidity;BME280_pressure;Samples;Min_cycle;Max_cycle;Signal;HPM_P1;HPM_P2
2022/01/20 00:00:22;;;;;;;6.90;6.20;;;3.20;99.90;;;;;;5032496;28;20215;-76
2022/01/20 00:02:56;;;;;;;6.15;5.55;;;3.20;99.90;;;;;;5023340;28;20220;-76
2022/01/20 00:05:37;;;;;;;6.72;5.63;;;3.20;99.90;;;;;;5033561;28;20192;-76
2022/01/20 00:08:13;;;;;;;5.82;5.32;;;3.20;99.90;;;;;;5031791;28;20219;-76
2022/01/20 00:27:13;;;;;;;6.40;5.55;;;3.30;99.90;;;;;;5033204;28;20203;-76
2022/01/20 00:32:33;;;;;;;6.20;5.60;;;3.20;99.90;;;;;;5018570;28;20230;-76
2022/01/20 00:35:20;;;;;;;6.28;5.68;;;3.30;99.90;;;;;;5034030;28;20192;-76
2022/01/20 00:37:46;;;;;;;5.97;5.47;;;3.30;99.90;;;;;;5032045;28;20201;-77
2022/01/20 00:40:15;;;;;;;5.50;5.00;;;3.20;99.90;;;;;;5031677;28;20196;-75
2022/01/20 00:42:42;;;;;;;6.07;5.57;;;3.30;99.90;;;;;;5032455;28;20203;-76
2022/01/20 00:45:10;;;;;;;6.15;5.57;;;3.30;99.90;;;;;;5031179;28;20648;-75
2022/01/20 00:47:39;;;;;;;5.80;5.20;;;3.40;99.90;;;;;;5033488;28;20196;-75
2022/01/20 00:50:06;;;;;;;5.30;4.80;;;3.40;99.90;;;;;;5013332;28;20233;-74
2022/01/20 00:52:33;;;;;;;4.80;4.32;;;3.50;99.90;;;;;;5032221;28;20228;-74
2022/01/20 00:55:00;;;;;;;4.85;4.43;;;3.40;99.90;;;;;;5029836;28;20710;-75
2022/01/20 00:57:28;;;;;;;5.10;4.60;;;3.50;99.90;;;;;;5031029;28;20201;-75
2022/01/20 00:59:56;;;;;;;4.95;4.45;;;3.50;99.90;;;;;;5031764;28;20231;-75
2022/01/20 01:02:23;;;;;;;4.82;4.38;;;3.40;99.90;;;;;;5031203;28;20207;-75
2022/01/20 01:04:51;;;;;;;4.90;4.35;;;3.50;99.90;;;;;;5032011;28;20199;-74
2022/01/20 01:10:03;;;;;;;4.15;3.70;;;3.50;99.90;;;;;;5013034;28;20231;-75
2022/01/20 01:12:38;;;;;;;3.78;3.47;;;3.50;99.90;;;;;;5031310;28;20223;-75
2022/01/20 01:15:11;;;;;;;4.15;3.65;;;3.50;99.90;;;;;;5032546;28;20199;-74
2022/01/20 01:20:25;;;;;;;6.55;3.15;;;3.50;99.90;;;;;;5023210;28;20216;-75
2022/01/20 01:22:52;;;;;;;3.10;2.85;;;3.50;99.90;;;;;;5024974;28;20239;-75
2022/01/20 01:25:19;;;;;;;3.60;3.30;;;3.50;99.90;;;;;;5031777;28;20227;-76
2022/01/20 01:27:47;;;;;;;3.83;3.53;;;3.50;99.90;;;;;;5031481;28;20204;-75
2022/01/20 01:30:38;;;;;;;3.63;3.33;;;3.50;99.90;;;;;;5032136;28;20208;-75
2022/01/20 01:33:06;;;;;;;3.40;3.10;;;3.50;99.90;;;;;;5032066;28;20227;-76
2022/01/20 01:35:38;;;;;;;3.10;2.80;;;3.50;99.90;;;;;;5028374;28;20284;-75
2022/01/20 01:38:36;;;;;;;2.80;2.60;;;3.50;99.90;;;;;;5031935;28;20219;-75
2022/01/20 01:41:07;;;;;;;1.83;1.73;;;3.60;99.90;;;;;;5013068;28;20287;-75
2022/01/20 01:43:37;;;;;;;1.40;1.30;;;3.60;99.90;;;;;;5031885;28;20193;-75
2022/01/20 01:46:05;;;;;;;1.83;1.30;;;3.50;99.90;;;;;;5030254;28;20711;-75
2022/01/20 01:48:32;;;;;;;1.35;1.25;;;3.50;99.90;;;;;;5030720;28;20334;-75
2022/01/20 01:51:00;;;;;;;1.38;1.27;;;3.60;99.90;;;;;;5027155;28;20198;-76
2022/01/20 01:53:28;;;;;;;1.35;1.25;;;3.50;99.90;;;;;;5031283;28;20635;-75
2022/01/20 01:55:55;;;;;;;1.30;1.20;;;3.50;99.90;;;;;;5022445;28;20208;-75
2022/01/20 01:58:22;;;;;;;1.83;1.30;;;3.60;99.90;;;;;;5031691;28;20246;-75
2022/01/20 02:00:51;;;;;;;1.30;1.20;;;3.60;99.90;;;;;;5031571;28;20200;-75
2022/01/20 02:03:18;;;;;;;3.10;1.65;;;3.60;99.90;;;;;;5031531;28;20204;-75
2022/01/20 02:06:01;;;;;;;1.50;1.35;;;3.60;99.90;;;;;;5020378;28;20249;-76
2022/01/20 02:08:37;;;;;;;1.70;1.60;;;3.70;99.90;;;;;;5019066;28;20221;-75
2022/01/20 02:19:20;;;;;;;1.80;1.50;;;3.60;99.90;;;;;;5028802;28;20227;-75
2022/01/20 02:21:50;;;;;;;1.50;1.40;;;3.70;99.90;;;;;;5026258;28;20192;-75
2022/01/20 02:24:18;;;;;;;1.90;1.80;;;3.60;99.90;;;;;;5030969;28;20667;-75
2022/01/20 02:26:45;;;;;;;1.83;1.73;;;3.60;99.90;;;;;;5027897;28;20305;-75
2022/01/20 02:29:13;;;;;;;1.70;1.60;;;3.60;99.90;;;;;;5031050;28;20219;-75
2022/01/20 02:31:40;;;;;;;1.92;1.80;;;3.50;99.90;;;;;;5031254;28;20253;-75
2022/01/20 02:34:11;;;;;;;1.95;1.85;;;3.50;99.90;;;;;;5030264;28;20550;-75
2022/01/20 02:36:40;;;;;;;2.05;1.90;;;3.50;99.90;;;;;;5025336;28;20242;-75
2022/01/20 02:39:22;;;;;;;2.28;2.05;;;3.50;99.90;;;;;;5030669;28;20219;-75
2022/01/20 02:44:51;;;;;;;2.33;2.17;;;3.60;99.90;;;;;;5031842;28;20308;-75
2022/01/20 02:47:19;;;;;;;2.00;1.90;;;3.70;99.90;;;;;;5017285;28;20248;-75
2022/01/20 02:49:46;;;;;;;2.50;2.30;;;3.70;99.90;;;;;;5031156;28;20309;-75
2022/01/20 02:52:13;;;;;;;2.53;2.35;;;3.70;99.90;;;;;;5030917;28;20290;-76
2022/01/20 02:54:41;;;;;;;2.53;2.33;;;3.80;99.90;;;;;;5031065;28;20225;-75
2022/01/20 02:57:09;;;;;;;2.33;2.22;;;3.80;99.90;;;;;;5030555;28;20292;-75
2022/01/20 02:59:36;;;;;;;2.78;2.58;;;3.80;99.90;;;;;;5030475;28;20217;-75
2022/01/20 03:02:04;;;;;;;3.15;2.92;;;3.80;99.90;;;;;;5031439;28;20227;-75
2022/01/20 03:04:32;;;;;;;2.70;2.50;;;3.80;99.90;;;;;;5014521;28;20385;-76
2022/01/20 06:10:48;;;;;;;6.78;6.20;;;3.30;99.90;;;;;;4936869;29;20741;-77
2022/01/20 06:13:15;;;;;;;6.53;5.93;;;3.30;99.90;;;;;;4939591;29;20257;-77
2022/01/20 06:15:42;;;;;;;7.35;6.60;;;3.30;99.90;;;;;;4939425;29;20294;-77
2022/01/20 06:18:09;;;;;;;7.32;6.63;;;3.30;99.90;;;;;;4943693;29;20218;-76
2022/01/20 06:20:37;;;;;;;7.85;7.15;;;3.30;99.90;;;;;;4928157;29;20201;-78
2022/01/20 06:23:07;;;;;;;8.10;7.28;;;3.30;99.90;;;;;;4930854;29;20584;-78
2022/01/20 06:25:35;;;;;;;7.45;6.75;;;3.40;99.90;;;;;;4931263;29;20221;-77
2022/01/20 06:28:04;;;;;;;8.73;6.75;;;3.40;99.90;;;;;;4931434;29;20208;-78
2022/01/20 06:30:32;;;;;;;10.85;7.97;;;3.50;99.90;;;;;;4923644;29;20205;-77
2022/01/20 06:32:59;;;;;;;8.68;7.80;;;3.50;99.90;;;;;;4926270;29;20258;-77
2022/01/20 06:35:27;;;;;;;9.40;7.78;;;3.50;99.90;;;;;;4933005;29;20211;-78
2022/01/20 06:37:53;;;;;;;8.55;7.63;;;3.50;99.90;;;;;;4931644;29;20200;-77
2022/01/20 06:40:21;;;;;;;8.45;7.55;;;3.50;99.90;;;;;;4933173;29;20300;-78
2022/01/20 06:42:48;;;;;;;9.50;8.10;;;3.60;99.90;;;;;;4932594;29;20203;-77
2022/01/20 06:45:18;;;;;;;8.85;7.95;;;3.50;99.90;;;;;;4932989;29;20211;-77
2022/01/20 06:47:45;;;;;;;7.72;6.95;;;3.50;99.90;;;;;;4934132;29;20213;-78
2022/01/20 06:50:14;;;;;;;8.52;7.25;;;3.40;99.90;;;;;;4933653;29;20289;-78
2022/01/20 06:52:42;;;;;;;8.63;7.72;;;3.40;99.90;;;;;;4928966;29;20207;-78
2022/01/20 06:55:11;;;;;;;7.82;7.03;;;3.40;99.90;;;;;;4927056;29;20238;-78
2022/01/20 06:57:39;;;;;;;7.93;7.10;;;3.50;99.90;;;;;;4933172;29;20203;-78
2022/01/20 07:00:09;;;;;;;8.18;7.30;;;3.40;99.90;;;;;;4931803;29;20208;-78
2022/01/20 07:02:37;;;;;;;7.38;6.53;;;3.40;99.90;;;;;;4936355;29;20205;-77
2022/01/20 07:05:05;;;;;;;7.47;6.57;;;3.40;99.90;;;;;;4936847;29;20731;-77
2022/01/20 07:07:32;;;;;;;8.00;6.95;;;3.40;99.90;;;;;;4932578;29;20248;-77
2022/01/20 07:09:59;;;;;;;6.88;5.85;;;3.40;99.90;;;;;;4932786;29;21175;-78
2022/01/20 07:12:26;;;;;;;6.50;5.82;;;3.40;99.90;;;;;;4929569;29;20215;-77
2022/01/20 07:14:54;;;;;;;6.38;5.30;;;3.30;99.90;;;;;;4934523;29;20681;-77
2022/01/20 07:17:20;;;;;;;7.20;6.05;;;3.20;99.90;;;;;;4932789;29;20729;-77
2022/01/20 07:19:49;;;;;;;7.97;6.60;;;3.10;99.90;;;;;;4933940;29;20199;-77
2022/01/20 07:22:16;;;;;;;7.50;5.63;;;3.10;99.90;;;;;;4932302;29;20217;-77
2022/01/20 07:24:43;;;;;;;6.68;5.25;;;3.00;99.90;;;;;;4932144;29;20272;-77
2022/01/20 07:27:10;;;;;;;10.05;6.15;;;2.90;99.90;;;;;;4932383;29;20300;-77
2022/01/20 07:29:37;;;;;;;7.35;5.93;;;2.90;99.90;;;;;;4933001;29;20203;-77
2022/01/20 07:32:06;;;;;;;6.80;5.95;;;3.00;99.90;;;;;;4933564;29;20665;-77
2022/01/20 07:34:34;;;;;;;5.88;5.22;;;3.00;99.90;;;;;;4935814;29;20337;-77
2022/01/20 07:37:04;;;;;;;7.68;5.65;;;3.00;99.90;;;;;;4933855;29;20209;-77
2022/01/20 07:39:31;;;;;;;7.10;5.47;;;3.00;99.90;;;;;;4932752;29;20296;-77
2022/01/20 07:41:58;;;;;;;7.10;5.88;;;3.10;99.90;;;;;;4938262;29;20259;-77
2022/01/20 07:44:25;;;;;;;7.57;6.00;;;3.10;99.90;;;;;;4932639;29;20223;-77
2022/01/20 07:46:53;;;;;;;6.82;5.70;;;3.10;99.90;;;;;;4932985;29;20301;-77
2022/01/20 07:49:20;;;;;;;7.88;5.65;;;3.20;99.90;;;;;;4936530;29;20292;-77
2022/01/20 07:51:47;;;;;;;8.82;6.00;;;3.20;99.90;;;;;;4937781;29;20219;-78
2022/01/20 07:54:15;;;;;;;7.28;5.60;;;3.20;99.90;;;;;;4941154;29;20320;-78
2022/01/20 07:56:42;;;;;;;8.70;6.38;;;3.30;99.90;;;;;;4938007;29;20201;-79
2022/01/20 07:59:09;;;;;;;7.35;6.65;;;3.40;99.90;;;;;;4937076;29;20293;-77
2022/01/20 08:01:36;;;;;;;7.43;6.68;;;3.40;99.90;;;;;;4936355;29;20302;-77
2022/01/20 08:04:03;;;;;;;9.73;6.25;;;3.50;99.90;;;;;;4935711;29;20320;-77
2022/01/20 08:06:30;;;;;;;8.65;5.75;;;3.40;99.90;;;;;;4935289;29;20274;-78
2022/01/20 08:08:57;;;;;;;8.15;6.57;;;3.30;99.90;;;;;;4935168;29;20672;-77
2022/01/20 08:11:25;;;;;;;9.25;6.22;;;3.30;99.90;;;;;;4937510;29;20227;-77
2022/01/20 08:13:52;;;;;;;10.00;6.45;;;3.40;99.90;;;;;;4934115;29;20264;-77
2022/01/20 08:16:20;;;;;;;9.80;6.90;;;3.40;99.90;;;;;;4935978;29;20211;-77
2022/01/20 08:18:47;;;;;;;8.95;5.65;;;3.40;99.90;;;;;;4931721;29;20298;-77
2022/01/20 08:21:13;;;;;;;10.27;7.13;;;3.50;99.90;;;;;;4935330;29;20216;-77
2022/01/20 08:23:40;;;;;;;8.75;6.97;;;3.50;99.90;;;;;;4934625;29;20248;-77
2022/01/20 08:26:07;;;;;;;13.13;6.60;;;3.50;99.90;;;;;;4936068;29;20209;-77
2022/01/20 08:28:36;;;;;;;7.00;5.55;;;3.50;99.90;;;;;;4936253;29;20227;-77
2022/01/20 08:31:03;;;;;;;7.18;5.65;;;3.50;99.90;;;;;;4935686;29;20216;-77
2022/01/20 08:33:30;;;;;;;8.45;5.63;;;3.50;99.90;;;;;;4934819;29;20286;-78
2022/01/20 08:35:57;;;;;;;9.63;6.10;;;3.60;99.90;;;;;;4936414;29;20257;-77
2022/01/20 08:38:24;;;;;;;6.85;5.20;;;3.60;99.90;;;;;;4934903;29;20300;-77
2022/01/20 08:40:52;;;;;;;8.35;6.57;;;3.70;99.90;;;;;;4935246;29;20209;-77
2022/01/20 08:43:19;;;;;;;7.20;5.18;;;3.70;99.90;;;;;;4934151;29;20330;-77
2022/01/20 08:45:47;;;;;;;7.55;5.50;;;3.70;99.90;;;;;;4935445;29;20203;-77
2022/01/20 08:48:15;;;;;;;5.90;5.28;;;3.70;99.90;;;;;;4935812;29;20207;-78
2022/01/20 08:50:44;;;;;;;8.13;5.15;;;3.80;99.90;;;;;;4934246;29;20208;-77
2022/01/20 08:53:12;;;;;;;7.68;5.00;;;3.80;99.90;;;;;;4932539;29;20229;-77
2022/01/20 08:55:39;;;;;;;8.82;4.55;;;3.90;99.90;;;;;;4938132;29;20237;-77
2022/01/20 08:58:06;;;;;;;8.85;5.55;;;3.90;99.90;;;;;;4934060;29;20206;-77
2022/01/20 09:00:36;;;;;;;10.35;5.03;;;4.00;99.90;;;;;;4943734;29;20280;-77
2022/01/20 09:03:05;;;;;;;6.63;4.75;;;4.00;99.90;;;;;;4938865;29;20708;-75
2022/01/20 09:05:32;;;;;;;6.28;5.53;;;4.10;99.90;;;;;;4935178;29;20657;-75
2022/01/20 09:07:59;;;;;;;7.60;5.45;;;4.20;99.90;;;;;;4931091;29;20197;-77
2022/01/20 09:10:28;;;;;;;11.32;5.32;;;4.30;99.90;;;;;;4945314;29;20204;-78
2022/01/20 09:15:41;;;;;;;7.57;6.00;;;4.50;99.90;;;;;;4947046;29;20221;-76
2022/01/20 09:18:10;;;;;;;7.38;5.45;;;4.60;99.90;;;;;;4931853;29;20291;-77
2022/01/20 09:20:39;;;;;;;7.05;5.45;;;4.70;99.90;;;;;;4934738;29;20235;-76
2022/01/20 09:23:07;;;;;;;6.47;5.05;;;4.70;99.90;;;;;;4934491;29;20221;-76
2022/01/20 09:25:35;;;;;;;7.47;4.82;;;4.70;99.90;;;;;;4934055;29;20201;-77
2022/01/20 09:28:02;;;;;;;10.13;5.18;;;4.60;99.90;;;;;;4936066;29;20209;-77
2022/01/20 09:30:30;;;;;;;8.13;5.72;;;4.60;99.90;;;;;;4936368;29;20959;-76
2022/01/20 09:33:01;;;;;;;13.55;6.82;;;4.60;99.90;;;;;;4934507;29;20740;-76
2022/01/20 09:35:32;;;;;;;9.88;6.50;;;4.60;99.90;;;;;;4930702;29;20231;-76
2022/01/20 09:38:02;;;;;;;8.95;5.30;;;4.60;99.90;;;;;;4935146;29;20209;-76
2022/01/20 09:40:30;;;;;;;9.15;5.55;;;4.60;99.90;;;;;;4938292;29;20311;-78
2022/01/20 09:42:57;;;;;;;12.48;5.22;;;4.60;99.90;;;;;;4934340;29;20342;-77
2022/01/20 09:45:24;;;;;;;11.15;5.85;;;4.70;99.90;;;;;;4934057;29;20215;-77
2022/01/20 09:47:51;;;;;;;8.27;4.63;;;4.70;99.90;;;;;;4935272;29;20290;-76
2022/01/20 09:50:20;;;;;;;6.90;5.03;;;4.70;99.90;;;;;;4933582;29;20295;-77
2022/01/20 09:52:51;;;;;;;7.53;4.95;;;4.70;99.90;;;;;;4933999;29;20228;-76
2022/01/20 09:55:19;;;;;;;8.75;5.20;;;4.60;99.90;;;;;;4933378;29;20221;-77
2022/01/20 09:57:46;;;;;;;11.18;5.65;;;4.50;99.90;;;;;;4932668;29;20215;-77
2022/01/20 10:00:16;;;;;;;7.53;4.90;;;4.60;99.90;;;;;;4935798;29;20197;-76
2022/01/20 10:02:55;;;;;;;11.10;5.50;;;4.60;99.90;;;;;;4935678;29;20229;-76
2022/01/20 10:05:31;;;;;;;8.80;5.50;;;4.60;99.90;;;;;;4934781;29;20764;-77
2022/01/20 10:08:07;;;;;;;10.50;5.47;;;4.50;99.90;;;;;;4933649;29;20207;-76
2022/01/20 10:10:40;;;;;;;10.02;6.45;;;4.60;99.90;;;;;;4933148;29;20192;-76
2022/01/20 10:13:08;;;;;;;13.13;5.97;;;4.70;99.90;;;;;;4929163;29;20229;-77
2022/01/20 10:15:35;;;;;;;8.80;4.93;;;4.60;99.90;;;;;;4930416;29;20245;-77
2022/01/20 10:18:07;;;;;;;6.22;4.70;;;4.60;99.90;;;;;;4929739;29;20200;-76
2022/01/20 10:20:35;;;;;;;10.45;5.82;;;4.60;99.90;;;;;;4930622;29;20299;-77
2022/01/20 10:23:04;;;;;;;7.07;5.40;;;4.60;99.90;;;;;;4932360;29;20220;-77
2022/01/20 10:25:35;;;;;;;10.50;5.35;;;4.60;99.90;;;;;;4929425;29;20200;-77
2022/01/20 10:28:02;;;;;;;10.85;5.78;;;4.60;99.90;;;;;;4928567;29;20204;-76
2022/01/20 10:30:33;;;;;;;9.77;5.00;;;4.60;99.90;;;;;;4926888;29;20197;-77
2022/01/20 10:33:03;;;;;;;9.35;5.22;;;4.70;99.90;;;;;;4930803;29;20224;-77
2022/01/20 10:35:34;;;;;;;7.60;4.60;;;4.70;99.90;;;;;;4933667;29;20237;-78
2022/01/20 10:38:11;;;;;;;6.60;4.65;;;4.70;99.90;;;;;;4933371;29;20286;-76
2022/01/20 10:40:50;;;;;;;11.63;5.53;;;4.70;99.90;;;;;;4931918;29;20291;-76
2022/01/20 10:43:21;;;;;;;7.93;5.60;;;4.80;99.90;;;;;;4942111;29;20216;-76
2022/01/20 10:45:48;;;;;;;8.40;4.47;;;4.70;99.90;;;;;;4932847;29;20197;-76
2022/01/20 10:48:19;;;;;;;7.50;4.45;;;4.80;99.90;;;;;;4935895;29;20205;-75
2022/01/20 10:50:47;;;;;;;8.13;5.00;;;4.80;99.90;;;;;;4934504;29;20296;-76
2022/01/20 10:53:20;;;;;;;9.15;4.53;;;5.10;99.90;;;;;;4937530;29;20217;-76
2022/01/20 10:55:47;;;;;;;5.93;4.10;;;5.30;99.90;;;;;;4931747;29;20220;-76
2022/01/20 10:58:16;;;;;;;6.90;4.65;;;5.30;99.90;;;;;;4932459;29;20751;-77
2022/01/20 11:00:46;;;;;;;7.47;4.03;;;5.20;99.90;;;;;;4932481;29;20215;-76
2022/01/20 11:03:14;;;;;;;11.68;4.93;;;5.20;99.90;;;;;;4932554;29;20219;-76
2022/01/20 11:05:44;;;;;;;7.32;4.70;;;5.10;99.90;;;;;;4933046;29;20209;-76
2022/01/20 11:08:11;;;;;;;8.82;4.30;;;5.00;99.90;;;;;;4927533;29;20219;-77
2022/01/20 11:10:42;;;;;;;5.90;4.07;;;4.90;99.90;;;;;;4926955;29;20209;-77
2022/01/20 11:13:11;;;;;;;7.22;5.05;;;5.00;99.90;;;;;;4929697;29;20255;-77
2022/01/20 11:15:40;;;;;;;8.30;4.75;;;5.00;99.90;;;;;;4927760;29;20233;-77
2022/01/20 11:18:08;;;;;;;5.82;4.30;;;5.00;99.90;;;;;;4931344;29;20236;-77
2022/01/20 11:20:42;;;;;;;8.45;4.40;;;5.00;99.90;;;;;;4927213;29;20316;-77
2022/01/20 11:23:09;;;;;;;8.45;5.13;;;5.00;99.90;;;;;;4930931;29;20237;-76
2022/01/20 11:25:39;;;;;;;9.20;5.05;;;5.10;99.90;;;;;;4934992;29;20291;-77
2022/01/20 11:28:09;;;;;;;7.82;4.63;;;5.40;99.90;;;;;;4934231;29;20208;-77
2022/01/20 11:30:39;;;;;;;5.30;3.58;;;5.70;99.90;;;;;;4936300;29;20835;-78
2022/01/20 11:33:08;;;;;;;5.30;4.15;;;6.10;99.90;;;;;;4935571;29;20225;-74
2022/01/20 11:35:40;;;;;;;8.70;4.20;;;6.60;99.90;;;;;;4932370;29;20295;-75
2022/01/20 11:38:09;;;;;;;6.00;4.20;;;7.20;99.90;;;;;;4931403;29;20192;-76
2022/01/20 11:40:47;;;;;;;8.75;4.38;;;7.60;99.90;;;;;;4933773;29;22126;-76
2022/01/20 11:43:15;;;;;;;7.07;4.18;;;7.70;99.90;;;;;;4932387;29;21175;-76
2022/01/20 11:45:46;;;;;;;7.93;4.05;;;7.60;99.90;;;;;;4934086;29;20686;-76
2022/01/20 11:48:15;;;;;;;6.22;3.78;;;7.50;99.90;;;;;;4935523;29;20200;-77
2022/01/20 11:50:43;;;;;;;5.30;3.72;;;7.30;99.90;;;;;;4933679;29;20292;-76
2022/01/20 11:53:15;;;;;;;7.38;3.40;;;7.10;99.90;;;;;;4934159;29;20221;-77
2022/01/20 11:55:48;;;;;;;5.63;3.30;;;6.80;99.90;;;;;;4933056;29;20239;-76
2022/01/20 11:58:19;;;;;;;5.68;3.95;;;6.70;99.90;;;;;;4935372;29;20212;-76
2022/01/20 12:00:58;;;;;;;7.93;3.58;;;6.40;99.90;;;;;;4938460;29;20205;-76
2022/01/20 12:03:25;;;;;;;5.95;3.83;;;6.20;99.90;;;;;;4939428;29;20217;-77
2022/01/20 12:05:58;;;;;;;3.38;1.77;;;5.60;99.90;;;;;;4936706;29;20212;-78
2022/01/20 12:08:24;;;;;;;1.77;1.38;;;5.00;99.90;;;;;;4933342;29;20215;-78
2022/01/20 12:10:59;;;;;;;4.95;2.53;;;4.30;99.90;;;;;;4933618;29;20218;-78
2022/01/20 12:13:28;;;;;;;7.72;4.85;;;3.60;99.90;;;;;;4930774;29;20244;-77
2022/01/20 12:15:58;;;;;;;8.98;6.00;;;3.10;99.90;;;;;;4928973;29;20233;-78
2022/01/20 12:18:25;;;;;;;9.35;7.78;;;2.80;99.90;;;;;;4932488;29;20228;-78
2022/01/20 12:20:52;;;;;;;5.85;3.50;;;2.70;99.90;;;;;;4936804;29;20198;-77
2022/01/20 12:23:20;;;;;;;4.78;3.17;;;2.60;99.90;;;;;;4933226;29;20229;-78
2022/01/20 12:25:47;;;;;;;6.22;5.15;;;2.60;99.90;;;;;;4934927;29;20201;-78
2022/01/20 12:28:17;;;;;;;9.40;6.50;;;2.50;99.90;;;;;;4932204;29;20383;-78
2022/01/20 12:30:48;;;;;;;5.18;3.30;;;2.40;99.90;;;;;;4933723;29;20216;-79
2022/01/20 12:33:17;;;;;;;5.72;3.60;;;2.40;99.90;;;;;;4931533;29;20321;-86
2022/01/20 12:35:49;;;;;;;5.60;3.00;;;2.40;99.90;;;;;;4932973;29;20282;-79
2022/01/20 12:38:19;;;;;;;7.70;3.40;;;2.40;99.90;;;;;;4934506;29;20260;-78
2022/01/20 12:40:49;;;;;;;4.30;2.25;;;2.40;99.90;;;;;;4934911;29;20657;-78
2022/01/20 12:43:16;;;;;;;7.50;2.90;;;2.50;99.90;;;;;;4930922;29;20246;-78
2022/01/20 12:45:55;;;;;;;5.68;2.53;;;2.50;99.90;;;;;;4934776;29;20213;-79
2022/01/20 12:48:22;;;;;;;6.95;3.58;;;2.60;99.90;;;;;;4931493;29;20719;-78
2022/01/20 12:50:55;;;;;;;8.63;3.10;;;2.60;99.90;;;;;;4933116;29;20208;-78
2022/01/20 12:53:36;;;;;;;5.18;2.95;;;2.60;99.90;;;;;;4932536;29;20221;-77
2022/01/20 12:56:04;;;;;;;8.57;3.05;;;2.60;99.90;;;;;;4942786;29;20228;-78
2022/01/20 12:58:31;;;;;;;5.03;3.15;;;2.60;99.90;;;;;;4938915;29;20196;-78
2022/01/20 13:01:01;;;;;;;6.90;2.80;;;2.60;99.90;;;;;;4940994;29;20240;-78
2022/01/20 13:03:37;;;;;;;6.35;3.25;;;2.60;99.90;;;;;;4930367;29;20762;-79
2022/01/20 13:06:05;;;;;;;3.90;2.63;;;2.60;99.90;;;;;;4939941;29;20216;-72
2022/01/20 13:08:36;;;;;;;5.00;2.70;;;2.70;99.90;;;;;;4929792;29;20226;-77
2022/01/20 13:11:05;;;;;;;6.75;3.35;;;2.80;99.90;;;;;;4926327;29;20205;-80
2022/01/20 13:13:32;;;;;;;4.82;2.42;;;2.80;99.90;;;;;;4930260;29;20607;-82
2022/01/20 13:16:10;;;;;;;4.90;2.85;;;2.80;99.90;;;;;;4931286;29;20236;-77
2022/01/20 13:18:37;;;;;;;6.82;3.13;;;2.80;99.90;;;;;;4933610;29;20206;-77
2022/01/20 13:21:07;;;;;;;5.97;2.95;;;2.70;99.90;;;;;;4931925;29;20197;-77
2022/01/20 13:24:02;;;;;;;5.82;3.13;;;2.70;99.90;;;;;;4930144;29;20352;-76
2022/01/20 13:26:29;;;;;;;7.22;3.03;;;2.70;99.90;;;;;;4932016;29;20216;-76
2022/01/20 13:29:01;;;;;;;7.90;3.65;;;2.70;99.90;;;;;;4934879;29;20206;-76
2022/01/20 13:31:29;;;;;;;5.43;2.95;;;2.70;99.90;;;;;;4933625;29;20293;-77
2022/01/20 13:34:00;;;;;;;8.25;3.15;;;2.70;99.90;;;;;;4931970;29;20206;-76
2022/01/20 13:36:38;;;;;;;7.50;2.97;;;2.70;99.90;;;;;;4925862;29;20221;-77
2022/01/20 13:39:05;;;;;;;8.55;3.65;;;2.80;99.90;;;;;;4933829;29;20292;-76
2022/01/20 13:41:32;;;;;;;8.10;3.60;;;2.80;99.90;;;;;;4933882;29;20232;-76
2022/01/20 13:46:48;;;;;;;6.80;3.13;;;2.70;99.90;;;;;;4927041;29;20297;-77
2022/01/20 13:49:17;;;;;;;6.93;3.17;;;2.70;99.90;;;;;;4933609;29;20278;-77
2022/01/20 13:51:45;;;;;;;5.10;3.45;;;2.70;99.90;;;;;;4937074;29;20249;-78
2022/01/20 13:54:13;;;;;;;3.88;3.50;;;2.70;99.90;;;;;;4934748;29;20206;-77
2022/01/20 13:56:51;;;;;;;5.20;3.72;;;2.70;99.90;;;;;;4936026;29;20590;-77
2022/01/20 13:59:18;;;;;;;5.57;3.40;;;2.70;99.90;;;;;;4943577;29;20293;-77
2022/01/20 14:01:46;;;;;;;6.97;3.25;;;2.70;99.90;;;;;;4934318;29;20704;-76
2022/01/20 14:04:15;;;;;;;8.88;3.85;;;2.70;99.90;;;;;;4930198;29;20197;-77
2022/01/20 14:06:42;;;;;;;6.10;3.50;;;2.70;99.90;;;;;;4933440;29;20253;-77
2022/01/20 14:09:09;;;;;;;5.95;3.67;;;2.70;99.90;;;;;;4932780;29;20206;-76
2022/01/20 14:11:36;;;;;;;6.88;3.92;;;2.70;99.90;;;;;;4933072;29;20202;-77
2022/01/20 14:14:04;;;;;;;5.78;4.15;;;2.70;99.90;;;;;;4930156;29;20209;-78
2022/01/20 14:16:33;;;;;;;6.45;3.90;;;2.70;99.90;;;;;;4934866;29;20859;-79
2022/01/20 14:19:01;;;;;;;9.02;4.00;;;2.70;99.90;;;;;;4933641;29;20208;-78
2022/01/20 14:21:32;;;;;;;10.68;4.40;;;2.60;99.90;;;;;;4925795;29;20256;-78
2022/01/20 14:24:00;;;;;;;5.03;3.70;;;2.60;99.90;;;;;;4928666;29;20200;-77
2022/01/20 14:26:30;;;;;;;5.70;3.88;;;2.60;99.90;;;;;;4922301;29;20233;-79
2022/01/20 14:28:58;;;;;;;6.15;3.75;;;2.50;99.90;;;;;;4909948;29;21532;-78
2022/01/20 14:31:25;;;;;;;13.65;8.15;;;2.50;99.90;;;;;;4924863;29;20720;-77
2022/01/20 14:33:52;;;;;;;8.23;4.10;;;2.40;99.90;;;;;;4920455;29;21280;-77
2022/01/20 14:36:21;;;;;;;7.82;4.35;;;2.40;99.90;;;;;;4927540;29;20320;-77
2022/01/20 14:38:47;;;;;;;5.32;3.83;;;2.40;99.90;;;;;;4924975;29;20589;-77
2022/01/20 14:41:14;;;;;;;7.35;3.92;;;2.40;99.90;;;;;;4930155;29;20211;-78
2022/01/20 14:43:42;;;;;;;8.02;4.32;;;2.50;99.90;;;;;;4927571;29;20948;-77
2022/01/20 14:46:09;;;;;;;7.50;4.18;;;2.50;99.90;;;;;;4923748;29;20299;-77
2022/01/20 14:48:37;;;;;;;8.38;4.63;;;2.60;99.90;;;;;;4930257;29;20201;-77
2022/01/20 14:51:04;;;;;;;9.02;4.57;;;2.60;99.90;;;;;;4926685;29;20198;-78
2022/01/20 14:53:33;;;;;;;8.13;4.25;;;2.70;99.90;;;;;;4928662;29;20305;-77
2022/01/20 14:56:00;;;;;;;7.15;4.15;;;2.70;99.90;;;;;;4918520;29;20654;-77
2022/01/20 14:58:29;;;;;;;6.90;4.35;;;2.80;99.90;;;;;;4927457;29;20257;-77
2022/01/20 15:00:56;;;;;;;8.18;4.25;;;2.80;99.90;;;;;;4927002;29;20663;-76
2022/01/20 15:03:23;;;;;;;10.85;3.92;;;2.90;99.90;;;;;;4922968;29;20222;-77
2022/01/20 15:05:50;;;;;;;6.90;4.45;;;2.80;99.90;;;;;;4923063;29;20223;-77
2022/01/20 15:08:17;;;;;;;5.80;3.67;;;2.90;99.90;;;;;;4926091;29;20204;-77
2022/01/20 15:10:45;;;;;;;9.02;4.13;;;2.80;99.90;;;;;;4926304;29;20206;-78
2022/01/20 15:13:13;;;;;;;6.47;4.47;;;2.80;99.90;;;;;;4925087;29;20706;-77
2022/01/20 15:15:40;;;;;;;7.65;4.20;;;2.80;99.90;;;;;;4928863;29;20698;-78
2022/01/20 15:18:07;;;;;;;8.40;4.13;;;2.80;99.90;;;;;;4926547;29;20246;-78
2022/01/20 15:20:34;;;;;;;5.05;3.78;;;2.80;99.90;;;;;;4931110;29;20203;-79
2022/01/20 15:23:01;;;;;;;7.22;4.18;;;2.90;99.90;;;;;;4932882;29;20221;-78
2022/01/20 15:25:28;;;;;;;7.38;4.20;;;2.90;99.90;;;;;;4927757;29;20202;-78
2022/01/20 15:27:57;;;;;;;8.20;3.65;;;2.90;99.90;;;;;;4927570;29;20206;-78
2022/01/20 15:30:24;;;;;;;9.68;4.50;;;2.90;99.90;;;;;;4922915;29;20199;-78
2022/01/20 15:32:51;;;;;;;6.25;3.72;;;3.00;99.90;;;;;;4928790;29;21304;-81
2022/01/20 15:35:18;;;;;;;7.70;3.83;;;2.90;99.90;;;;;;4928576;29;20230;-76
2022/01/20 15:37:45;;;;;;;6.70;3.70;;;3.00;99.90;;;;;;4934691;29;20254;-79
2022/01/20 15:40:16;;;;;;;8.70;4.05;;;2.90;99.90;;;;;;4936739;29;20344;-79
2022/01/20 15:42:44;;;;;;;7.38;3.83;;;2.90;99.90;;;;;;4935827;29;20308;-79
2022/01/20 15:45:12;;;;;;;9.55;4.82;;;2.90;99.90;;;;;;4928565;29;20202;-79
2022/01/20 15:47:40;;;;;;;7.53;3.40;;;2.80;99.90;;;;;;4930607;29;20208;-78
2022/01/20 15:50:09;;;;;;;6.60;3.80;;;2.80;99.90;;;;;;4930422;29;20267;-76
2022/01/20 15:52:36;;;;;;;7.53;3.97;;;2.80;99.90;;;;;;4926071;29;20223;-78
2022/01/20 15:55:04;;;;;;;8.02;4.30;;;2.80;99.90;;;;;;4929217;29;20201;-79
2022/01/20 15:57:31;;;;;;;5.65;3.00;;;2.80;99.90;;;;;;4932700;29;20260;-80
2022/01/20 15:59:59;;;;;;;5.75;3.28;;;2.80;99.90;;;;;;4926952;29;20208;-77
2022/01/20 16:02:27;;;;;;;5.38;3.00;;;2.70;99.90;;;;;;4932852;29;20251;-77
2022/01/20 16:04:55;;;;;;;8.20;3.20;;;2.70;99.90;;;;;;4929747;29;20209;-79
2022/01/20 16:07:22;;;;;;;3.90;2.92;;;2.70;99.90;;;;;;4929882;29;20213;-79
2022/01/20 16:09:49;;;;;;;7.22;3.22;;;2.70;99.90;;;;;;4926538;29;20205;-78
2022/01/20 16:12:16;;;;;;;8.15;3.40;;;2.70;99.90;;;;;;4931027;29;20231;-77
2022/01/20 16:14:43;;;;;;;4.68;3.55;;;2.70;99.90;;;;;;4926267;29;20257;-78
2022/01/20 16:17:10;;;;;;;7.30;3.50;;;2.70;99.90;;;;;;4932495;29;20318;-79
2022/01/20 16:19:38;;;;;;;8.57;3.72;;;2.60;99.90;;;;;;4934919;29;20257;-78
2022/01/20 16:22:06;;;;;;;6.13;3.53;;;2.60;99.90;;;;;;4930970;29;20222;-79
2022/01/20 16:24:34;;;;;;;7.00;3.60;;;2.50;99.90;;;;;;4931476;29;20249;-79
2022/01/20 16:27:01;;;;;;;6.88;3.20;;;2.40;99.90;;;;;;4929665;29;20250;-79
2022/01/20 16:29:28;;;;;;;5.40;3.20;;;2.30;99.90;;;;;;4929939;29;20284;-79
2022/01/20 16:31:55;;;;;;;4.15;2.60;;;2.30;99.90;;;;;;4923143;29;20312;-79
2022/01/20 16:34:25;;;;;;;9.85;3.08;;;2.20;99.90;;;;;;4926139;29;20197;-78
2022/01/20 16:36:53;;;;;;;5.95;2.53;;;2.30;99.90;;;;;;4926863;29;20221;-77
2022/01/20 16:39:20;;;;;;;5.70;2.70;;;2.20;99.90;;;;;;4929008;29;20380;-78
2022/01/20 16:41:47;;;;;;;10.18;2.90;;;2.20;99.90;;;;;;4927304;29;20819;-78
2022/01/20 16:44:15;;;;;;;5.03;2.45;;;2.20;99.90;;;;;;4928831;29;20228;-77
2022/01/20 16:46:42;;;;;;;6.93;2.75;;;2.10;99.90;;;;;;4926871;29;20256;-77
2022/01/20 16:49:09;;;;;;;3.38;2.50;;;2.10;99.90;;;;;;4926627;29;20204;-79